• Join FlightAware (Why Join?)
  • Login
  • US Flag 
06:25AM EST


 

Airport Tracker/Info


-or-


 

Live Flight TrackerFlight Track Log ✈ N793DC ✈ 03-May-2013 ✈ KGXY - KBIL

Flight Track Log - Related Links

Times and Time Zones

All times are in EDT time to prevent confusion due to time zone crossing. See the N793DC flight status page for this flight to view local times or setup timezone preferences in your user account.

Time Position Orientation Groundspeed Altitude Reporting Facility
EDT Latitude Longitude Course Direction KTS MPH feet Rate Location/Type
06:23PM 40.5833 -104.7167 180° South 183 211 10,000  Level Denver TRACON
06:24PM 40.6222 -104.7344 341° North 180 207 11,800 1,980 Climbing Denver Center
06:25PM 40.6628 -104.7539 340° North 158 182 13,700 1,680 Climbing Denver Center
06:26PM 40.7061 -104.7819 334° Northwest 173 199 15,300 1,560 Climbing Denver Center
06:27PM 40.7519 -104.8169 330° Northwest 179 206 17,000 1,320 Climbing Denver Center
06:28PM 40.7986 -104.8456 335° Northwest 183 211 18,100 1,200 Climbing Denver Center
06:29PM 40.4344 -104.6332 180° South  Level FlightAware Approximate
06:29PM 40.8458 -104.8786 332° Northwest 185 213 19,500  Level Denver Center
06:30PM 40.8956 -104.9086 335° Northwest 191 220 20,800 1,200 Climbing Denver Center
06:31PM 40.9428 -104.9400 333° Northwest 189 217 22,100 1,320 Climbing Denver Center
06:32PM 40.9950 -104.9769 332° Northwest 183 211 23,600 900 Climbing Denver Center
06:33PM 41.0367 -105.0039 334° Northwest 186 214 24,000 180 Climbing Denver Center
06:35PM 41.0964 -105.0522 329° Northwest 221 254 24,000  Level Denver Center
06:36PM 41.1547 -105.0919 333° Northwest 241 277 24,000  Level Denver Center
06:37PM 41.2236 -105.1403 332° Northwest 250 288 24,000  Level Denver Center
06:38PM 41.2825 -105.1819 332° Northwest 250 288 24,000  Level Denver Center
06:39PM 41.3539 -105.2300 333° Northwest 257 296 24,000  Level Denver Center
06:40PM 41.4156 -105.2703 334° Northwest 258 297 24,000  Level Denver Center
06:41PM 41.4861 -105.3197 332° Northwest 258 297 24,000  Level Denver Center
06:42PM 41.5481 -105.3581 335° Northwest 257 296 24,000  Level Denver Center
06:43PM 41.6197 -105.4072 333° Northwest 259 298 24,000  Level Denver Center
06:44PM 41.6822 -105.4492 333° Northwest 261 300 24,000  Level Denver Center
06:45PM 41.7447 -105.4878 335° Northwest 258 297 24,000  Level Denver Center
06:46PM 41.8169 -105.5333 335° Northwest 256 295 24,000  Level Denver Center
06:47PM 41.8778 -105.5747 333° Northwest 256 295 24,000  Level Denver Center
06:48PM 41.9500 -105.6208 335° Northwest 256 295 24,000  Level Denver Center
06:49PM 42.0106 -105.6633 332° Northwest 257 296 24,000  Level Denver Center
06:50PM 42.0811 -105.7139 332° Northwest 256 295 24,000  Level Denver Center
06:51PM 42.1408 -105.7556 333° Northwest 253 291 24,000  Level Denver Center
06:52PM 42.2111 -105.8056 332° Northwest 255 293 24,000  Level Denver Center
06:53PM 42.2719 -105.8506 331° Northwest 260 299 24,000  Level Denver Center
06:54PM 42.3339 -105.8944 332° Northwest 262 302 24,000  Level Denver Center
06:55PM 42.4058 -105.9464 332° Northwest 262 302 24,000  Level Denver Center
06:56PM 42.4678 -105.9897 333° Northwest 263 303 24,000  Level Denver Center
06:57PM 42.5394 -106.0422 332° Northwest 262 302 24,000  Level Denver Center
06:58PM 42.6006 -106.0856 332° Northwest 260 299 24,000  Level Denver Center
06:59PM 42.6739 -106.1367 333° Northwest 263 303 24,000  Level Denver Center
07:00PM 42.7353 -106.1817 332° Northwest 265 305 24,000  Level Denver Center
07:01PM 42.8072 -106.2336 332° Northwest 264 304 24,000  Level Denver Center
07:02PM 42.8692 -106.2789 332° Northwest 265 305 24,000  Level Denver Center
07:03PM 42.9419 -106.3317 332° Northwest 266 306 24,000  Level Denver Center
07:04PM 43.0044 -106.3778 332° Northwest 267 307 24,000  Level Denver Center
07:05PM 43.0661 -106.4231 332° Northwest 264 304 24,000  Level Denver Center
07:07PM 43.1392 -106.4750 333° Northwest 267 307 24,000  Level Denver Center
07:08PM 43.2017 -106.5225 331° Northwest 268 308 24,000  Level Denver Center
07:09PM 43.2758 -106.5767 332° Northwest 271 312 24,000  Level Denver Center
07:10PM 43.3386 -106.6231 332° Northwest 269 310 24,000  Level Denver Center
07:11PM 43.4114 -106.6772 332° Northwest 269 310 24,000  Level Denver Center
07:12PM 43.4742 -106.7244 331° Northwest 268 308 24,000  Level Denver Center
07:13PM 43.5478 -106.7792 332° Northwest 268 308 24,000  Level Denver Center
07:14PM 43.6117 -106.8272 331° Northwest 273 314 24,000  Level Denver Center
07:14PM 43.6528 -106.8575 332° Northwest 267 307 24,000  Level Salt Lake Center
07:15PM 43.7253 -106.9153 330° Northwest 269 310 24,000  Level Salt Lake Center
07:16PM 43.7875 -106.9656 330° Northwest 269 310 24,000  Level Salt Lake Center
07:17PM 43.8500 -107.0106 333° Northwest 267 307 24,000  Level Salt Lake Center
07:19PM 43.9206 -107.0650 331° Northwest 261 300 24,000  Level Salt Lake Center
07:20PM 43.9803 -107.1089 332° Northwest 257 296 24,000  Level Salt Lake Center
07:20PM 44.0128 -107.1283 337° Northwest 255 293 24,000  Level Denver Center
07:21PM 44.0731 -107.1744 331° Northwest 258 297 24,000  Level Denver Center
07:22PM 44.1431 -107.2292 331° Northwest 261 300 24,000  Level Denver Center
07:23PM 44.1728 -107.2531 330° Northwest 262 302 24,000  Level Salt Lake Center
07:24PM 44.2431 -107.3050 332° Northwest 256 295 24,000 -300 Level Salt Lake Center
07:25PM 44.3036 -107.3547 330° Northwest 263 303 23,500 -540 Descending Salt Lake Center
07:26PM 44.3792 -107.4111 332° Northwest 276 318 23,000 -540 Descending Salt Lake Center
07:27PM 44.4433 -107.4611 331° Northwest 277 319 22,500 -540 Descending Salt Lake Center
07:28PM 44.5183 -107.5183 331° Northwest 276 318 22,000 -480 Descending Salt Lake Center
07:29PM 44.5819 -107.5667 332° Northwest 274 315 21,600 -480 Descending Salt Lake Center
07:30PM 44.6447 -107.6147 331° Northwest 270 311 21,100 -540 Descending Salt Lake Center
07:31PM 44.7197 -107.6731 331° Northwest 273 314 20,500 -600 Descending Salt Lake Center
07:32PM 44.7842 -107.7225 331° Northwest 276 318 19,900 -720 Descending Salt Lake Center
07:33PM 44.8600 -107.7808 331° Northwest 280 322 19,100 -780 Descending Salt Lake Center
07:34PM 44.9250 -107.8328 331° Northwest 284 327 18,400 -840 Descending Salt Lake Center
07:35PM 45.0011 -107.8933 331° Northwest 284 327 17,400 -1,020 Descending Salt Lake Center
07:36PM 45.0681 -107.9456 331° Northwest 285 328 16,300 -660 Descending Salt Lake Center
07:37PM 45.1397 -108.0050 330° Northwest 276 318 16,100 -120 Descending Salt Lake Center
07:38PM 45.2081 -108.0592 331° Northwest 265 305 16,100 -300 Level Salt Lake Center
07:39PM 45.2706 -108.1083 331° Northwest 259 298 15,500 -1,140 Descending Salt Lake Center
07:40PM 45.3422 -108.1669 330° Northwest 278 320 13,800 -1,440 Descending Salt Lake Center
07:41PM 45.4089 -108.2194 331° Northwest 275 316 12,600 -1,260 Descending Salt Lake Center
07:42PM 45.4717 -108.2706 330° Northwest 248 285 11,200 -1,440 Descending Salt Lake Center
07:43PM 45.5269 -108.3153 330° Northwest 233 268 9,700 -1,140 Descending Salt Lake Center
07:44PM 45.5778 -108.3572 330° Northwest 215 247 8,900 -1,200 Descending Salt Lake Center
07:45PM 45.6256 -108.4181 318° Northwest 213 245 7,300 -1,260 Descending Salt Lake Center
07:46PM 45.6703 -108.4692 321° Northwest 210 242 6,300 -840 Descending Salt Lake Center
07:47PM 45.7172 -108.5131 327° Northwest 191 220 5,600 -540 Descending Salt Lake Center
07:48PM 45.7622 -108.5536 328° Northwest 197 227 5,200 -420 Descending Salt Lake Center
07:49PM 45.7931 -108.5983 315° West 155 178 4,800 -540 Descending Salt Lake Center
07:50PM 45.8175 -108.5736 35° Northeast 118 136 4,100 -600 Descending Salt Lake Center
07:51PM 45.8081 -108.5411 113° Southeast 72 83 3,600 -540 Descending Salt Lake Center
07:53PM 45.8077 -108.5429 90° East  Level Estimated